createdAt,value
2022-09-24T00:01:48.107Z,14.60
2022-09-24T00:04:16.265Z,21.77
2022-09-24T00:06:45.979Z,20.10
2022-09-24T00:09:16.127Z,16.02
2022-09-24T00:11:45.532Z,15.45
2022-09-24T00:14:15.557Z,18.92
2022-09-24T00:16:44.498Z,17.63
2022-09-24T00:19:13.841Z,19.65
2022-09-24T00:21:43.105Z,22.80
2022-09-24T00:24:34.826Z,20.25
2022-09-24T00:27:03.213Z,19.23
2022-09-24T00:29:34.206Z,18.02
2022-09-24T00:32:03.385Z,19.38
2022-09-24T00:34:31.572Z,23.90
2022-09-24T00:37:00.016Z,23.70
2022-09-24T00:39:28.542Z,20.98
2022-09-24T00:41:56.583Z,28.80
2022-09-24T00:44:58.126Z,20.48
2022-09-24T00:47:34.851Z,22.67
2022-09-24T00:50:21.702Z,18.70
2022-09-24T00:52:53.813Z,25.25
2022-09-24T00:55:24.847Z,21.77
2022-09-24T00:57:57.245Z,23.48
2022-09-24T01:00:25.866Z,21.17
2022-09-24T01:02:59.510Z,16.25
2022-09-24T01:05:27.820Z,20.33
2022-09-24T01:07:55.846Z,18.77
2022-09-24T01:10:51.310Z,18.67
2022-09-24T01:13:49.867Z,15.07
2022-09-24T01:16:27.910Z,20.55
2022-09-24T01:19:02.117Z,19.20
2022-09-24T01:21:37.264Z,13.18
2022-09-24T01:24:19.852Z,22.75
2022-09-24T01:27:07.788Z,24.38
2022-09-24T01:30:00.156Z,21.08
2022-09-24T01:32:35.590Z,21.30
2022-09-24T01:35:09.401Z,20.90
2022-09-24T01:37:39.958Z,19.48
2022-09-24T01:40:10.713Z,15.45
2022-09-24T01:42:40.944Z,17.40
2022-09-24T01:45:10.503Z,20.58
2022-09-24T01:47:41.798Z,21.77
2022-09-24T01:50:12.205Z,14.70
2022-09-24T01:52:59.319Z,16.73
2022-09-24T01:55:31.156Z,16.90
2022-09-24T01:58:04.916Z,20.05
2022-09-24T02:00:33.181Z,18.70
2022-09-24T02:03:08.864Z,15.75
2022-09-24T02:05:42.651Z,26.23
2022-09-24T02:08:15.482Z,15.68
2022-09-24T02:10:48.191Z,18.45
2022-09-24T02:13:19.843Z,17.00
2022-09-24T02:15:51.426Z,14.40
2022-09-24T02:18:24.694Z,17.27
2022-09-24T02:20:53.600Z,18.95
2022-09-24T02:23:21.922Z,12.43
2022-09-24T02:25:54.463Z,17.90
2022-09-24T02:28:22.821Z,18.42
2022-09-24T02:30:54.909Z,17.23
2022-09-24T02:33:44.146Z,19.27
2022-09-24T02:36:13.083Z,16.83
2022-09-24T02:38:42.456Z,17.92
2022-09-24T02:41:11.604Z,19.20
2022-09-24T02:43:41.113Z,12.98
2022-09-24T02:46:10.279Z,13.93
2022-09-24T02:48:41.745Z,13.75
2022-09-24T02:51:11.979Z,16.60
2022-09-24T02:53:42.705Z,19.45
2022-09-24T02:56:11.299Z,19.08
2022-09-24T02:58:43.214Z,17.00
2022-09-24T03:01:11.540Z,18.70
2022-09-24T03:03:40.900Z,17.73
2022-09-24T03:06:09.174Z,13.40
2022-09-24T03:08:37.161Z,17.05
2022-09-24T03:11:05.266Z,23.40
2022-09-24T03:13:33.293Z,19.55
2022-09-24T03:16:01.345Z,16.85
2022-09-24T03:18:29.422Z,18.92
2022-09-24T03:21:00.320Z,17.95
2022-09-24T03:23:28.765Z,19.92
2022-09-24T03:25:58.787Z,16.90
2022-09-24T03:28:27.498Z,12.82
2022-09-24T03:31:00.670Z,16.05
2022-09-24T03:33:30.692Z,17.15
2022-09-24T03:36:01.886Z,17.92
2022-09-24T03:38:30.517Z,15.38
2022-09-24T03:40:59.053Z,19.35
2022-09-24T03:43:27.412Z,19.15
2022-09-24T03:45:55.846Z,19.20
2022-09-24T03:48:24.757Z,18.48
2022-09-24T03:50:52.926Z,19.77
2022-09-24T03:53:22.561Z,19.23
2022-09-24T03:55:56.799Z,14.30
2022-09-24T03:58:25.596Z,18.83
2022-09-24T04:00:55.015Z,17.40
2022-09-24T04:03:23.452Z,19.55
2022-09-24T04:05:51.923Z,17.92
2022-09-24T04:08:20.592Z,20.08
2022-09-24T04:10:50.893Z,17.13
2022-09-24T04:13:19.826Z,16.38
2022-09-24T04:15:48.974Z,17.13
2022-09-24T04:18:17.724Z,19.77
2022-09-24T04:20:46.912Z,18.38
2022-09-24T04:23:16.911Z,19.65
2022-09-24T04:25:48.049Z,19.38
2022-09-24T04:28:17.706Z,21.13
2022-09-24T04:30:46.002Z,20.40
2022-09-24T04:33:16.151Z,18.67
2022-09-24T04:35:45.620Z,19.55
2022-09-24T04:38:13.771Z,14.55
2022-09-24T04:40:41.889Z,20.05
2022-09-24T04:43:09.936Z,19.02
2022-09-24T04:45:39.442Z,24.02
2022-09-24T04:48:07.817Z,19.35
2022-09-24T04:50:36.141Z,16.00
2022-09-24T04:53:04.434Z,17.85
2022-09-24T04:55:33.180Z,16.02
2022-09-24T04:58:01.968Z,22.08
2022-09-24T05:00:31.656Z,23.92
2022-09-24T05:03:03.342Z,20.77
2022-09-24T05:05:32.282Z,17.52
2022-09-24T05:08:01.497Z,20.73
2022-09-24T05:10:31.362Z,19.75
2022-09-24T05:12:59.411Z,20.77
2022-09-24T05:15:27.662Z,22.83
2022-09-24T05:17:55.994Z,15.05
2022-09-24T05:20:25.464Z,20.15
2022-09-24T05:22:53.460Z,17.08
2022-09-24T05:25:23.048Z,20.73
2022-09-24T05:27:51.293Z,18.02
2022-09-24T05:30:21.050Z,22.48
2022-09-24T05:32:49.545Z,20.92
2022-09-24T05:35:17.925Z,18.67
2022-09-24T05:37:49.533Z,17.52
2022-09-24T05:40:35.586Z,16.02
2022-09-24T05:43:04.346Z,23.45
2022-09-24T05:45:33.257Z,23.17
2022-09-24T05:48:01.615Z,21.48
2022-09-24T05:50:30.134Z,22.08
2022-09-24T05:52:59.629Z,17.35
2022-09-24T05:55:31.565Z,17.42
2022-09-24T05:58:04.265Z,25.38
2022-09-24T06:00:32.564Z,16.23
2022-09-24T06:03:06.749Z,22.65
2022-09-24T06:05:35.490Z,17.63
2022-09-24T06:08:05.728Z,23.45
2022-09-24T06:10:33.822Z,25.05
2022-09-24T06:13:01.823Z,25.17
2022-09-24T06:15:30.942Z,26.95
2022-09-24T06:17:58.927Z,17.90
2022-09-24T06:20:27.030Z,20.55
2022-09-24T06:22:57.386Z,18.05
2022-09-24T06:25:27.319Z,22.48
2022-09-24T06:28:00.422Z,14.73
2022-09-24T06:30:29.640Z,15.38
2022-09-24T06:33:05.122Z,21.10
2022-09-24T06:38:02.567Z,25.35
2022-09-24T06:40:36.645Z,23.15
2022-09-24T06:43:06.336Z,18.83
2022-09-24T06:45:34.913Z,16.45
2022-09-24T06:48:05.148Z,24.13
2022-09-24T06:50:35.548Z,28.77
2022-09-24T06:53:06.395Z,21.80
2022-09-24T06:55:36.605Z,20.17
2022-09-24T06:58:06.388Z,21.70
2022-09-24T07:00:35.293Z,27.60
2022-09-24T07:03:03.573Z,24.80
2022-09-24T07:05:31.590Z,23.83
2022-09-24T07:07:59.613Z,26.10
2022-09-24T07:10:28.112Z,19.15
2022-09-24T07:12:57.487Z,18.95
2022-09-24T07:15:25.521Z,23.70
2022-09-24T07:17:56.571Z,25.00
2022-09-24T07:20:24.851Z,23.85
2022-09-24T07:22:52.852Z,26.13
2022-09-24T07:25:20.896Z,23.00
2022-09-24T07:27:48.965Z,26.77
2022-09-24T07:30:18.527Z,19.48
2022-09-24T07:32:46.598Z,18.80
2022-09-24T07:35:14.893Z,24.85
2022-09-24T07:37:42.882Z,21.35
2022-09-24T07:40:11.989Z,20.80
2022-09-24T07:42:48.964Z,23.30
2022-09-24T07:45:18.397Z,24.83
2022-09-24T07:47:46.422Z,26.05
2022-09-24T07:50:14.655Z,21.88
2022-09-24T07:52:42.660Z,23.38
2022-09-24T07:55:10.886Z,25.25
2022-09-24T07:57:39.388Z,23.77
2022-09-24T08:00:09.047Z,27.48
2022-09-24T08:02:38.498Z,23.35
2022-09-24T08:05:07.359Z,21.63
2022-09-24T08:07:35.448Z,21.48
2022-09-24T08:10:03.454Z,24.30
2022-09-24T08:12:31.641Z,29.55
2022-09-24T08:14:59.958Z,22.45
2022-09-24T08:17:28.015Z,27.13
2022-09-24T08:19:57.750Z,28.90
2022-09-24T08:22:26.416Z,26.48
2022-09-24T08:24:54.903Z,30.13
2022-09-24T08:27:23.875Z,26.88
2022-09-24T08:29:51.953Z,25.45
2022-09-24T08:32:20.004Z,27.20
2022-09-24T08:34:48.029Z,27.27
2022-09-24T08:37:17.464Z,26.25
2022-09-24T08:39:45.490Z,26.55
2022-09-24T08:42:22.196Z,28.30
2022-09-24T08:45:09.559Z,26.65
2022-09-24T08:47:43.390Z,27.02
2022-09-24T08:50:17.385Z,29.05
2022-09-24T08:53:02.681Z,20.55
2022-09-24T08:55:35.727Z,21.40
2022-09-24T08:58:18.101Z,23.42
2022-09-24T09:00:52.792Z,26.75
2022-09-24T09:03:31.615Z,29.27
2022-09-24T09:06:04.644Z,27.63
2022-09-24T09:09:05.191Z,23.63
2022-09-24T09:11:33.699Z,21.95
2022-09-24T09:14:05.494Z,23.60
2022-09-24T09:16:41.548Z,27.70
2022-09-24T09:19:14.330Z,27.30
2022-09-24T09:21:45.090Z,26.52
2022-09-24T09:24:20.638Z,24.95
2022-09-24T09:29:18.649Z,32.38
2022-09-24T09:31:56.269Z,21.58
2022-09-24T09:34:43.943Z,23.70
2022-09-24T09:37:25.924Z,24.05
2022-09-24T09:40:05.245Z,24.35
2022-09-24T09:42:36.342Z,24.27
2022-09-24T09:45:16.199Z,28.70
2022-09-24T09:47:47.447Z,23.83
2022-09-24T09:50:24.762Z,25.13
2022-09-24T09:52:53.193Z,21.30
2022-09-24T09:55:24.624Z,23.60
2022-09-24T09:57:54.544Z,24.95
2022-09-24T10:00:27.827Z,24.25
2022-09-24T10:02:56.775Z,23.50
2022-09-24T10:05:28.752Z,20.83
2022-09-24T10:07:58.135Z,25.00
2022-09-24T10:10:28.895Z,22.85
2022-09-24T10:13:08.829Z,24.42
2022-09-24T10:15:49.186Z,23.73
2022-09-24T10:18:18.312Z,22.48
2022-09-24T10:20:48.638Z,23.10
2022-09-24T10:23:22.083Z,24.20
2022-09-24T10:25:59.696Z,20.67
2022-09-24T10:28:46.132Z,15.40
2022-09-24T10:31:16.553Z,19.33
2022-09-24T10:33:47.043Z,19.50
2022-09-24T10:36:17.379Z,20.05
2022-09-24T10:38:45.751Z,19.15
2022-09-24T10:41:27.297Z,20.85
2022-09-24T10:43:56.625Z,20.92
2022-09-24T10:46:56.219Z,25.40
2022-09-24T10:49:36.687Z,20.88
2022-09-24T10:52:19.908Z,19.02
2022-09-24T10:54:58.694Z,18.92
2022-09-24T10:57:35.029Z,17.10
2022-09-24T11:00:10.589Z,19.52
2022-09-24T11:05:38.885Z,18.77
2022-09-24T11:08:17.503Z,19.23
2022-09-24T11:11:18.234Z,16.58
2022-09-24T11:13:55.876Z,15.15
2022-09-24T11:16:51.168Z,16.23
2022-09-24T11:19:36.695Z,18.10
2022-09-24T11:22:12.691Z,17.05
2022-09-24T11:24:50.383Z,15.02
2022-09-24T11:27:40.634Z,12.75
2022-09-24T11:30:12.560Z,13.90
2022-09-24T11:32:56.604Z,14.15
2022-09-24T11:35:41.025Z,16.52
2022-09-24T11:38:14.817Z,12.07
2022-09-24T11:41:05.017Z,13.80
2022-09-24T11:43:46.076Z,19.75
2022-09-24T11:46:27.030Z,14.32
2022-09-24T11:49:24.664Z,10.80
2022-09-24T11:51:57.890Z,10.15
2022-09-24T11:54:31.014Z,10.63
2022-09-24T11:57:05.150Z,10.13
2022-09-24T11:59:39.366Z,12.82
2022-09-24T12:02:19.359Z,9.13
2022-09-24T12:04:54.550Z,12.25
2022-09-24T12:07:27.746Z,12.68
2022-09-24T12:10:00.534Z,11.27
2022-09-24T12:12:32.343Z,12.00
2022-09-24T12:15:03.503Z,14.02
2022-09-24T12:17:39.371Z,12.25
2022-09-24T12:20:19.981Z,11.73
2022-09-24T12:22:49.871Z,13.70
2022-09-24T12:25:18.343Z,14.35
2022-09-24T12:27:47.390Z,11.43
2022-09-24T12:30:43.080Z,15.25
2022-09-24T12:33:16.825Z,14.38
2022-09-24T12:35:51.588Z,14.85
2022-09-24T12:38:22.041Z,15.57
2022-09-24T12:41:06.235Z,12.70
2022-09-24T12:43:39.080Z,16.63
2022-09-24T12:46:09.354Z,17.05
2022-09-24T12:48:39.880Z,16.00
2022-09-24T12:51:10.455Z,14.43
2022-09-24T12:53:41.422Z,17.25
2022-09-24T12:56:11.413Z,17.52
2022-09-24T12:58:41.488Z,16.35
2022-09-24T13:01:14.578Z,15.10
2022-09-24T13:03:47.265Z,13.88
2022-09-24T13:06:31.281Z,14.75
2022-09-24T13:08:59.602Z,12.88
2022-09-24T13:11:30.794Z,12.05
2022-09-24T13:14:21.663Z,13.90
2022-09-24T13:16:53.367Z,13.77
2022-09-24T13:19:28.282Z,15.95
2022-09-24T13:21:58.730Z,13.35
2022-09-24T13:24:31.810Z,13.10
2022-09-24T13:27:24.832Z,12.63
2022-09-24T13:30:21.474Z,10.77
2022-09-24T13:32:57.110Z,15.65
2022-09-24T13:35:29.986Z,14.70
2022-09-24T13:38:04.872Z,16.77
2022-09-24T13:40:39.310Z,17.55
2022-09-24T13:43:13.805Z,15.13
2022-09-24T13:45:45.611Z,14.25
2022-09-24T13:48:26.307Z,15.63
2022-09-24T13:50:56.306Z,14.45
2022-09-24T13:53:30.822Z,13.25
2022-09-24T13:56:01.250Z,14.60
2022-09-24T13:58:30.081Z,11.80
2022-09-24T14:00:59.880Z,13.77
2022-09-24T14:03:30.934Z,13.52
2022-09-24T14:06:00.740Z,14.43
2022-09-24T14:08:31.013Z,16.10
2022-09-24T14:11:18.317Z,20.67
2022-09-24T14:13:46.769Z,13.30
2022-09-24T14:16:17.898Z,12.15
2022-09-24T14:18:46.168Z,11.60
2022-09-24T14:21:22.115Z,11.43
2022-09-24T14:23:54.855Z,10.40
2022-09-24T14:26:31.136Z,13.02
2022-09-24T14:29:01.083Z,9.30
2022-09-24T14:31:29.485Z,11.15
2022-09-24T14:33:58.663Z,11.80
2022-09-24T14:36:37.358Z,14.40
2022-09-24T14:39:06.753Z,10.35
2022-09-24T14:41:37.155Z,12.27
2022-09-24T14:44:08.858Z,13.60
2022-09-24T14:46:41.554Z,10.13
2022-09-24T14:49:20.655Z,12.52
2022-09-24T14:51:55.407Z,13.68
2022-09-24T14:54:29.602Z,10.85
2022-09-24T14:56:57.650Z,10.25
2022-09-24T14:59:30.819Z,13.77
2022-09-24T15:02:17.747Z,13.50
2022-09-24T15:04:48.627Z,15.63
2022-09-24T15:07:24.588Z,23.92
2022-09-24T15:09:54.738Z,14.05
2022-09-24T15:12:30.727Z,13.88
2022-09-24T15:15:00.782Z,12.27
2022-09-24T15:17:32.740Z,12.13
2022-09-24T15:20:01.264Z,12.05
2022-09-24T15:22:31.892Z,14.68
2022-09-24T15:25:02.216Z,14.68
2022-09-24T15:27:32.284Z,7.95
2022-09-24T15:30:02.156Z,12.73
2022-09-24T15:32:32.561Z,9.35
2022-09-24T15:35:01.804Z,12.00
2022-09-24T15:37:32.154Z,9.48
2022-09-24T15:40:07.939Z,11.32
2022-09-24T15:42:36.066Z,11.45
2022-09-24T15:45:04.197Z,12.93
2022-09-24T15:47:32.234Z,12.98
2022-09-24T15:50:00.266Z,12.20
2022-09-24T15:52:32.743Z,10.68
2022-09-24T15:55:03.948Z,10.93
2022-09-24T15:57:31.966Z,12.07
2022-09-24T16:00:00.401Z,9.95
2022-09-24T16:02:31.860Z,9.50
2022-09-24T16:05:03.579Z,12.98
2022-09-24T16:07:33.393Z,8.95
2022-09-24T16:10:01.415Z,11.07
2022-09-24T16:12:29.476Z,14.80
2022-09-24T16:14:59.266Z,10.38
2022-09-24T16:17:27.461Z,12.90
2022-09-24T16:19:55.895Z,14.10
2022-09-24T16:22:23.942Z,9.57
2022-09-24T16:24:54.164Z,16.83
2022-09-24T16:27:22.173Z,10.25
2022-09-24T16:29:50.254Z,14.20
2022-09-24T16:32:18.423Z,10.80
2022-09-24T16:34:46.760Z,11.65
2022-09-24T16:37:16.588Z,10.60
2022-09-24T16:39:44.622Z,14.50
2022-09-24T16:42:14.053Z,11.98
2022-09-24T16:44:42.021Z,10.70
2022-09-24T16:47:10.061Z,11.27
2022-09-24T16:49:38.067Z,10.90
2022-09-24T16:52:06.243Z,8.80
2022-09-24T16:54:36.765Z,11.98
2022-09-24T16:57:06.218Z,10.63
2022-09-24T16:59:35.817Z,8.93
2022-09-24T17:02:03.948Z,9.73
2022-09-24T17:04:32.061Z,11.38
2022-09-24T17:07:00.712Z,10.75
2022-09-24T17:09:46.275Z,8.82
2022-09-24T17:12:16.608Z,10.52
2022-09-24T17:14:46.063Z,9.52
2022-09-24T17:17:14.071Z,10.25
2022-09-24T17:19:42.091Z,12.20
2022-09-24T17:22:10.104Z,11.88
2022-09-24T17:24:40.070Z,13.75
2022-09-24T17:27:08.569Z,10.23
2022-09-24T17:29:36.611Z,14.27
2022-09-24T17:32:06.008Z,11.90
2022-09-24T17:34:34.284Z,9.60
2022-09-24T17:37:02.297Z,10.32
2022-09-24T17:39:30.886Z,13.57
2022-09-24T17:41:58.896Z,12.95
2022-09-24T17:44:26.947Z,11.27
2022-09-24T17:46:54.996Z,12.43
2022-09-24T17:49:24.450Z,10.98
2022-09-24T17:51:52.482Z,9.27
2022-09-24T17:54:23.346Z,13.27
2022-09-24T17:56:51.435Z,8.68
2022-09-24T17:59:24.162Z,11.70
2022-09-24T18:01:54.459Z,13.05
2022-09-24T18:04:25.692Z,15.95
2022-09-24T18:06:54.227Z,11.95
2022-09-24T18:09:22.569Z,9.82
2022-09-24T18:11:52.438Z,10.88
2022-09-24T18:14:22.225Z,11.38
2022-09-24T18:16:51.252Z,11.13
2022-09-24T18:19:19.495Z,23.48
2022-09-24T18:21:49.819Z,15.93
2022-09-24T18:24:17.911Z,15.75
2022-09-24T18:26:49.549Z,11.50
2022-09-24T18:29:20.281Z,19.63
2022-09-24T18:31:49.322Z,14.63
2022-09-24T18:34:17.626Z,18.95
2022-09-24T18:36:46.763Z,18.08
2022-09-24T18:39:23.894Z,13.75
2022-09-24T18:41:53.354Z,12.88
2022-09-24T18:44:21.363Z,13.02
2022-09-24T18:46:49.896Z,16.80
2022-09-24T18:49:19.381Z,15.68
2022-09-24T18:51:47.642Z,20.52
2022-09-24T18:54:18.281Z,17.13
2022-09-24T18:56:46.893Z,17.48
2022-09-24T18:59:17.178Z,14.68
2022-09-24T19:01:46.881Z,21.17
2022-09-24T19:04:15.935Z,17.17
2022-09-24T19:06:45.465Z,15.00
2022-09-24T19:09:17.211Z,15.75
2022-09-24T19:11:47.345Z,12.90
2022-09-24T19:14:18.031Z,14.15
2022-09-24T19:16:47.174Z,12.60
2022-09-24T19:19:16.088Z,11.45
2022-09-24T19:21:44.284Z,12.73
2022-09-24T19:24:12.973Z,9.63
2022-09-24T19:26:41.013Z,11.23
2022-09-24T19:29:10.512Z,13.38
2022-09-24T19:31:40.840Z,10.88
2022-09-24T19:34:11.611Z,8.75
2022-09-24T19:36:43.628Z,12.73
2022-09-24T19:39:13.745Z,9.48
2022-09-24T19:41:41.929Z,8.00
2022-09-24T19:44:11.851Z,7.38
2022-09-24T19:46:40.396Z,7.10
2022-09-24T19:49:08.695Z,10.55
2022-09-24T19:51:37.380Z,7.57
2022-09-24T19:54:07.822Z,5.68
2022-09-24T19:56:36.152Z,8.30
2022-09-24T19:59:05.036Z,4.82
2022-09-24T20:01:34.894Z,7.05
2022-09-24T20:04:05.865Z,5.40
2022-09-24T20:06:35.910Z,7.30
2022-09-24T20:09:04.186Z,8.57
2022-09-24T20:11:32.876Z,6.30
2022-09-24T20:14:01.742Z,10.40
2022-09-24T20:16:32.557Z,9.07
2022-09-24T20:19:03.384Z,6.47
2022-09-24T20:21:34.766Z,4.93
2022-09-24T20:24:03.882Z,5.97
2022-09-24T20:26:49.528Z,7.85
2022-09-24T20:29:19.577Z,5.20
2022-09-24T20:31:51.913Z,6.45
2022-09-24T20:34:22.989Z,5.38
2022-09-24T20:36:51.337Z,8.38
2022-09-24T20:39:19.618Z,5.75
2022-09-24T20:41:49.443Z,10.48
2022-09-24T20:44:17.619Z,8.80
2022-09-24T20:46:45.700Z,9.25
2022-09-24T20:49:19.655Z,8.23
2022-09-24T20:51:54.113Z,8.05
2022-09-24T20:54:26.892Z,6.78
2022-09-24T20:56:54.951Z,9.48
2022-09-24T20:59:24.341Z,9.30
2022-09-24T21:01:53.176Z,8.88
2022-09-24T21:04:22.551Z,9.15
2022-09-24T21:06:52.315Z,15.00
2022-09-24T21:09:20.471Z,9.40
2022-09-24T21:11:50.125Z,9.43
2022-09-24T21:14:18.605Z,10.93
2022-09-24T21:16:46.756Z,8.65
2022-09-24T21:19:15.856Z,10.35
2022-09-24T21:21:44.179Z,7.72
2022-09-24T21:24:15.688Z,14.30
2022-09-24T21:26:44.883Z,10.57
2022-09-24T21:29:16.459Z,6.72
2022-09-24T21:31:46.161Z,9.82
2022-09-24T21:34:15.634Z,6.40
2022-09-24T21:36:45.626Z,12.25
2022-09-24T21:39:16.982Z,9.75
2022-09-24T21:41:48.100Z,9.35
2022-09-24T21:44:17.529Z,10.18
2022-09-24T21:46:46.183Z,10.38
2022-09-24T21:49:14.284Z,8.52
2022-09-24T21:51:44.430Z,8.70
2022-09-24T21:54:17.366Z,13.38
2022-09-24T21:56:50.157Z,10.88
2022-09-24T21:59:51.178Z,9.05
2022-09-24T22:02:20.259Z,13.32
2022-09-24T22:04:48.642Z,10.20
2022-09-24T22:07:17.718Z,14.88
2022-09-24T22:09:45.790Z,9.25
2022-09-24T22:12:15.404Z,10.20
2022-09-24T22:14:44.918Z,13.85
2022-09-24T22:17:13.421Z,7.22
2022-09-24T22:19:41.741Z,16.63
2022-09-24T22:22:09.749Z,21.48
2022-09-24T22:24:37.767Z,13.00
2022-09-24T22:27:05.868Z,12.73
2022-09-24T22:29:35.236Z,17.17
2022-09-24T22:32:04.291Z,17.50
2022-09-24T22:34:58.415Z,15.93
2022-09-24T22:37:27.209Z,9.15
2022-09-24T22:39:55.258Z,15.10
2022-09-24T22:42:23.335Z,10.50
2022-09-24T22:44:52.742Z,7.18
2022-09-24T22:47:21.077Z,10.75
2022-09-24T22:49:49.405Z,9.80
2022-09-24T22:52:17.684Z,8.32
2022-09-24T22:54:46.001Z,5.28
2022-09-24T22:57:14.134Z,14.10
2022-09-24T22:59:42.156Z,10.40
2022-09-24T23:02:13.289Z,11.77
2022-09-24T23:04:41.764Z,8.73
2022-09-24T23:07:10.545Z,12.25
2022-09-24T23:09:38.528Z,8.73
2022-09-24T23:12:06.643Z,9.25
2022-09-24T23:14:35.124Z,12.68
2022-09-24T23:17:03.228Z,8.82
2022-09-24T23:19:46.496Z,13.35
2022-09-24T23:22:14.520Z,8.43
2022-09-24T23:24:42.567Z,8.95
2022-09-24T23:27:10.598Z,8.20
2022-09-24T23:29:38.596Z,11.20
2022-09-24T23:32:06.931Z,9.65
2022-09-24T23:34:36.294Z,11.05
2022-09-24T23:37:04.407Z,7.80
2022-09-24T23:39:32.455Z,4.68
2022-09-24T23:42:00.479Z,7.32
2022-09-24T23:44:28.507Z,8.32
2022-09-24T23:46:58.916Z,10.80
2022-09-24T23:49:28.228Z,6.32
2022-09-24T23:52:00.039Z,11.98
2022-09-24T23:54:29.281Z,11.68
2022-09-24T23:56:57.602Z,9.77
2022-09-24T23:59:25.920Z,10.55
